aviador You're here:

YPCC Decoded Metar

COCOS ISL INTL A in AUSTRALIA
Report Time2017-03-28 05:30:00
UTC Time2017-03-28 06:08:04
Flight Rules vfr VFR
Wind330° at 09 kt
W.Decomp.*RWY 33: 9.0 kt HW 0.5 kt RCW
W.Rank330° ranks 21
Current wind is above 330° avg. (5.9)
Visibility9999 m
Phenomena:N/A
Clouds:Few 018 Hf
Expected CloudBase > 2,400 ft AGL from Temp-Dew spread
CeilingNone
Temp30°C (ISA +15)
Dew Point24°C (70% RH)
Heat Index35.0°C
QNH1011 hPa
Density Alt2,188 ft
Elevation10 ft
Report Wrong Elevation
Raw Report
YPCC 280530Z 33009KT 9999 FEW018 30/24 Q1011=

Extra information for YPCC:More info

Metar Taf Metar & Taf Last 4 Metars F.Rules Stats Wind Profile Meteogram Temp Stats Airport Information Weather charts Add Link Nearby VenuesMetar ALERT Operation Metar Decoded Social comments